Time;durP1;ratioP1;P1;durP2;ratioP2;P2;SDS_P1;SDS_P2;PMS_P1;PMS_P2;Temp;Humidity;BMP_temperature;BMP_pressure;BME280_temperature;BME280_humidity;BME280_pressure;Samples;Min_cycle;Max_cycle;Signal;HPM_P1;HPM_P2
2022/05/17 00:01:00;;;;;;;11.93;9.40;;;;;;;20.68;53.79;93653.97;4915733;29;20039;-88
2022/05/17 00:03:27;;;;;;;12.90;9.52;;;;;;;20.70;53.91;93651.44;4916359;29;20040;-86
2022/05/17 00:05:52;;;;;;;12.15;8.82;;;;;;;20.69;53.58;93651.94;4947933;29;20047;-89
2022/05/17 00:08:18;;;;;;;13.35;10.32;;;;;;;20.69;53.61;93649.22;4943157;29;20662;-86
2022/05/17 00:10:44;;;;;;;11.68;8.55;;;;;;;20.67;53.78;93641.47;4926014;29;20535;-93
2022/05/17 00:13:09;;;;;;;9.98;8.38;;;;;;;20.68;53.78;93648.47;4933849;29;20387;-91
2022/05/17 00:15:35;;;;;;;12.10;8.77;;;;;;;20.67;53.83;93638.75;4946851;28;20095;-93
2022/05/17 00:18:00;;;;;;;12.18;8.40;;;;;;;20.71;53.71;93643.94;4916859;29;20043;-93
2022/05/17 00:20:26;;;;;;;8.65;7.13;;;;;;;20.67;53.75;93644.22;4947748;29;20036;-85
2022/05/17 00:22:51;;;;;;;11.60;8.32;;;;;;;20.67;53.87;93630.50;4932736;29;20054;-89
2022/05/17 00:25:17;;;;;;;10.32;8.00;;;;;;;20.68;53.88;93629.22;4915192;29;20047;-85
2022/05/17 00:27:43;;;;;;;9.60;7.63;;;;;;;20.67;53.75;93635.25;4916793;29;20394;-87
2022/05/17 00:30:09;;;;;;;10.88;7.50;;;;;;;20.67;53.81;93629.75;4915992;29;20067;-88
2022/05/17 00:32:34;;;;;;;10.80;7.75;;;;;;;20.66;53.89;93634.50;4964526;28;20126;-94
2022/05/17 00:35:00;;;;;;;9.75;6.75;;;;;;;20.67;53.74;93638.75;4931979;29;20043;-92
2022/05/17 00:37:25;;;;;;;9.27;7.43;;;;;;;20.66;53.74;93631.75;4939906;29;20043;-91
2022/05/17 00:39:51;;;;;;;9.73;7.43;;;;;;;20.66;53.70;93631.00;4937595;28;20126;-88
2022/05/17 00:42:16;;;;;;;9.85;8.00;;;;;;;20.66;53.89;93622.78;4944701;29;20474;-92
2022/05/17 00:44:45;;;;;;;10.95;7.63;;;;;;;20.68;53.80;93631.25;4935838;29;20044;-85
2022/05/17 00:47:21;;;;;;;10.25;7.78;;;;;;;20.66;53.87;93623.53;4950423;29;20115;-89
2022/05/17 00:49:50;;;;;;;9.25;7.55;;;;;;;20.67;53.29;93621.50;4935850;29;20044;-94
2022/05/17 00:52:24;;;;;;;8.20;6.47;;;;;;;20.67;53.79;93616.03;4950970;29;20134;-90
2022/05/17 00:54:50;;;;;;;8.48;5.60;;;;;;;20.66;53.56;93617.28;4919634;29;20047;-87
2022/05/17 00:57:33;;;;;;;7.93;7.00;;;;;;;20.66;53.72;93614.53;4934355;29;20058;-86
2022/05/17 01:00:01;;;;;;;7.85;6.88;;;;;;;20.66;53.68;93606.28;4923159;28;20042;-92
2022/05/17 01:02:26;;;;;;;8.05;6.65;;;;;;;20.66;53.69;93618.03;4919426;29;20414;-87
2022/05/17 01:04:52;;;;;;;7.32;6.25;;;;;;;20.66;53.60;93606.28;4919138;29;20035;-84
2022/05/17 01:07:18;;;;;;;8.65;6.70;;;;;;;20.66;53.73;93612.53;4934143;29;20051;-87
2022/05/17 01:09:44;;;;;;;7.25;6.38;;;;;;;20.65;53.61;93618.53;4935548;29;20074;-85
2022/05/17 01:12:10;;;;;;;7.93;6.80;;;;;;;20.65;53.66;93618.53;4939929;29;20071;-92
2022/05/17 01:17:22;;;;;;;6.60;5.60;;;;;;;20.65;53.57;93619.28;4930538;29;20054;-86
2022/05/17 01:19:47;;;;;;;11.63;6.78;;;;;;;20.64;53.67;93617.78;4916209;29;20044;-85
2022/05/17 01:22:13;;;;;;;7.68;6.25;;;;;;;20.64;53.99;93619.81;4930362;29;20349;-92
2022/05/17 01:24:39;;;;;;;7.40;6.28;;;;;;;20.62;53.44;93606.59;4935605;29;20043;-87
2022/05/17 01:27:09;;;;;;;8.48;6.05;;;;;;;20.64;53.43;93609.56;4933286;29;20047;-90
2022/05/17 01:29:40;;;;;;;6.38;5.63;;;;;;;20.64;53.48;93606.81;4935872;29;20088;-89
2022/05/17 01:32:07;;;;;;;7.28;6.00;;;;;;;20.63;53.70;93610.06;4918202;29;20039;-88
2022/05/17 01:34:33;;;;;;;9.85;6.88;;;;;;;20.63;53.74;93613.56;4934988;29;20043;-87
2022/05/17 01:36:59;;;;;;;7.82;6.15;;;;;;;20.65;53.73;93615.78;4933520;29;20066;-88
2022/05/17 01:39:24;;;;;;;7.97;6.75;;;;;;;20.64;53.93;93614.31;4934215;28;20514;-93
2022/05/17 01:41:50;;;;;;;8.18;5.30;;;;;;;20.63;53.76;93613.56;4918934;29;20062;-86
2022/05/17 01:44:15;;;;;;;7.72;5.65;;;;;;;20.61;53.60;93605.09;4939221;29;20032;-88
2022/05/17 01:46:41;;;;;;;6.32;5.72;;;;;;;20.62;53.67;93609.34;4926731;29;20039;-89
2022/05/17 01:49:07;;;;;;;6.95;5.60;;;;;;;20.62;53.49;93603.84;4917934;29;20058;-90
2022/05/17 01:51:32;;;;;;;7.97;6.05;;;;;;;20.64;53.70;93604.06;4949339;28;20130;-89
2022/05/17 01:53:58;;;;;;;8.52;6.00;;;;;;;20.63;53.63;93596.34;4918435;29;20039;-92
2022/05/17 01:56:23;;;;;;;7.07;5.30;;;;;;;20.61;53.66;93601.63;4948458;29;20042;-88
2022/05/17 01:58:48;;;;;;;7.45;5.43;;;;;;;20.63;53.50;93602.56;4918037;29;20032;-86
2022/05/17 02:01:14;;;;;;;7.30;5.57;;;;;;;20.64;53.50;93600.56;4933869;29;20042;-87
2022/05/17 02:03:39;;;;;;;6.03;5.43;;;;;;;20.63;53.38;93601.84;4950296;28;20090;-86
2022/05/17 02:06:05;;;;;;;6.47;5.78;;;;;;;20.63;53.48;93594.34;4932876;29;20047;-86
2022/05/17 02:08:30;;;;;;;7.68;5.93;;;;;;;20.62;53.58;93583.88;4933268;29;20418;-92
2022/05/17 02:10:57;;;;;;;5.43;4.85;;;;;;;20.61;53.43;93596.84;4950170;28;20039;-89
2022/05/17 02:13:22;;;;;;;5.78;4.88;;;;;;;20.62;53.50;93592.09;4933202;29;20126;-86
2022/05/17 02:15:48;;;;;;;5.68;5.03;;;;;;;20.61;53.54;93594.13;4936364;28;20045;-85
2022/05/17 02:18:13;;;;;;;6.38;5.35;;;;;;;20.62;53.45;93587.34;4951691;28;20340;-93
2022/05/17 02:20:38;;;;;;;6.07;5.35;;;;;;;20.59;53.64;93585.66;4934667;29;20039;-86
2022/05/17 02:23:07;;;;;;;7.22;5.43;;;;;;;20.63;53.48;93588.09;4933009;29;20059;-88
2022/05/17 02:25:33;;;;;;;6.45;5.13;;;;;;;20.62;53.57;93600.34;4948268;28;20521;-87
2022/05/17 02:27:58;;;;;;;5.88;4.85;;;;;;;20.61;53.45;93587.88;4932821;29;20035;-86
2022/05/17 02:30:24;;;;;;;5.78;4.65;;;;;;;20.62;53.55;93592.09;4948523;28;20502;-91
2022/05/17 02:32:53;;;;;;;5.32;4.63;;;;;;;20.60;53.45;93589.88;4917969;29;20478;-89
2022/05/17 02:35:18;;;;;;;6.13;4.97;;;;;;;20.59;53.59;93593.88;4916456;29;20047;-90
2022/05/17 02:37:44;;;;;;;5.72;4.65;;;;;;;20.61;53.60;93596.13;4917257;29;20047;-85
2022/05/17 02:40:09;;;;;;;6.07;4.95;;;;;;;20.61;53.46;93596.84;4933202;29;20043;-89
2022/05/17 02:42:35;;;;;;;6.40;4.70;;;;;;;20.60;53.34;93600.13;4933139;29;20197;-88
2022/05/17 02:45:00;;;;;;;6.20;4.55;;;;;;;20.60;53.63;93608.38;4933533;29;20043;-92
2022/05/17 02:47:26;;;;;;;6.53;4.40;;;;;;;20.58;53.43;93599.91;4930512;28;20090;-89
2022/05/17 02:49:51;;;;;;;4.65;4.15;;;;;;;20.58;53.30;93597.16;4948988;28;20047;-93
2022/05/17 02:52:17;;;;;;;6.20;4.00;;;;;;;20.60;53.59;93595.38;4933281;28;20031;-90
2022/05/17 02:54:42;;;;;;;4.22;3.75;;;;;;;20.59;53.45;93593.16;4917650;29;20405;-85
2022/05/17 02:57:08;;;;;;;4.82;4.18;;;;;;;20.59;53.27;93591.16;4947469;28;20043;-87
2022/05/17 02:59:33;;;;;;;5.47;4.30;;;;;;;20.59;53.39;93590.41;4915559;28;20049;-91
2022/05/17 03:01:59;;;;;;;4.72;4.22;;;;;;;20.58;53.50;93603.38;4950767;28;20477;-92
2022/05/17 03:04:26;;;;;;;5.25;4.18;;;;;;;20.58;53.40;93597.16;4932164;29;20360;-85
2022/05/17 03:06:52;;;;;;;5.22;4.28;;;;;;;20.58;53.42;93600.66;4933861;29;20477;-87
2022/05/17 03:09:17;;;;;;;6.07;4.10;;;;;;;20.57;53.22;93598.44;4916358;29;20043;-88
2022/05/17 03:11:43;;;;;;;6.05;4.93;;;;;;;20.59;53.38;93604.88;4933309;29;20047;-89
2022/05/17 03:14:12;;;;;;;6.38;4.60;;;;;;;20.58;53.40;93597.16;4932879;28;20040;-94
2022/05/17 03:16:38;;;;;;;5.85;4.22;;;;;;;20.57;53.48;93607.41;4932082;29;20437;-94
2022/05/17 03:19:04;;;;;;;6.82;4.72;;;;;;;20.58;53.40;93592.41;4916096;29;20053;-91
2022/05/17 03:21:29;;;;;;;5.18;4.50;;;;;;;20.57;53.37;93610.16;4930848;29;20550;-90
2022/05/17 03:23:55;;;;;;;5.88;4.50;;;;;;;20.57;53.46;93607.41;4933357;29;20051;-84
2022/05/17 03:26:20;;;;;;;4.38;3.97;;;;;;;20.56;53.34;93603.19;4931920;29;20094;-95
2022/05/17 03:28:46;;;;;;;5.50;3.90;;;;;;;20.57;53.29;93609.44;4916952;29;20043;-90
2022/05/17 03:31:11;;;;;;;4.93;4.28;;;;;;;20.57;53.36;93609.44;4929524;29;20036;-90
2022/05/17 03:33:38;;;;;;;5.43;4.47;;;;;;;20.57;53.42;93618.38;4929429;29;20538;-90
2022/05/17 03:36:04;;;;;;;4.55;3.60;;;;;;;20.58;53.14;93613.63;4947304;29;20041;-88
2022/05/17 03:38:30;;;;;;;5.07;3.72;;;;;;;20.56;53.28;93616.19;4932902;29;20035;-88
2022/05/17 03:40:58;;;;;;;5.63;4.00;;;;;;;20.56;53.44;93624.44;4919036;29;20054;-87
2022/05/17 03:43:24;;;;;;;11.30;4.60;;;;;;;20.55;53.22;93623.69;4935672;29;20040;-88
2022/05/17 03:45:49;;;;;;;12.85;10.75;;;;;;;20.60;53.32;93611.84;4936341;29;20043;-87
2022/05/17 03:48:15;;;;;;;5.15;4.03;;;;;;;20.57;53.08;93617.66;4942316;28;20027;-85
2022/05/17 03:50:42;;;;;;;5.90;4.13;;;;;;;20.56;53.05;93619.69;4922636;29;20054;-90
2022/05/17 03:53:08;;;;;;;5.40;3.72;;;;;;;20.59;52.88;93626.84;4919395;29;20054;-85
2022/05/17 03:55:33;;;;;;;4.97;3.75;;;;;;;20.62;53.27;93622.31;4918865;29;20048;-91
2022/05/17 03:57:59;;;;;;;4.75;3.22;;;;;;;20.61;52.96;93627.06;4938135;29;20043;-88
2022/05/17 04:00:25;;;;;;;7.78;4.45;;;;;;;20.62;53.24;93625.81;4929990;29;20051;-86
2022/05/17 04:02:51;;;;;;;4.32;3.65;;;;;;;20.63;52.99;93629.31;4934876;29;20035;-88
2022/05/17 04:05:17;;;;;;;10.52;7.55;;;;;;;20.63;53.08;93629.31;4915729;28;20067;-87
2022/05/17 04:07:42;;;;;;;10.75;8.02;;;;;;;20.58;53.13;93632.84;4915433;29;20125;-90
2022/05/17 04:10:08;;;;;;;8.15;5.63;;;;;;;20.59;53.06;93628.84;4930381;29;20091;-91
2022/05/17 04:12:34;;;;;;;9.40;6.43;;;;;;;20.59;53.09;93623.34;4931570;29;20039;-86
2022/05/17 04:14:59;;;;;;;14.32;7.43;;;;;;;20.59;53.05;93626.84;4932764;29;20035;-91
2022/05/17 04:17:25;;;;;;;8.48;6.78;;;;;;;20.55;53.68;93628.44;4935189;29;20031;-90
2022/05/17 04:19:50;;;;;;;8.00;5.95;;;;;;;20.51;53.55;93634.97;4935580;29;20035;-87
2022/05/17 04:22:16;;;;;;;10.75;7.15;;;;;;;20.47;53.85;93637.25;4917624;28;20070;-90
2022/05/17 04:24:41;;;;;;;17.55;7.22;;;;;;;20.50;53.75;93627.97;4915034;29;20496;-89
2022/05/17 04:27:08;;;;;;;13.40;7.20;;;;;;;20.54;53.56;93633.19;4949337;28;20047;-87
2022/05/17 04:29:33;;;;;;;23.27;7.80;;;;;;;20.53;53.78;93628.94;4962230;28;20055;-86
2022/05/17 04:31:59;;;;;;;20.83;7.18;;;;;;;20.57;53.40;93636.91;4921315;28;20095;-90
2022/05/17 04:34:24;;;;;;;19.20;8.48;;;;;;;20.55;53.45;93636.66;4950868;28;20126;-92
2022/05/17 04:36:50;;;;;;;19.08;7.00;;;;;;;20.61;53.89;93635.31;4918603;28;20074;-86
2022/05/17 04:39:15;;;;;;;207.10;159.20;;;;;;;20.61;54.15;93642.81;4927239;29;20062;-84
2022/05/17 04:41:43;;;;;;;275.15;231.02;;;;;;;20.65;53.76;93635.75;4932560;28;20039;-88
2022/05/17 04:44:09;;;;;;;44.72;16.77;;;;;;;20.68;53.16;93645.72;4938566;28;20027;-90
2022/05/17 04:46:34;;;;;;;38.50;13.80;;;;;;;20.68;53.45;93647.72;4919566;28;20048;-84
2022/05/17 04:49:00;;;;;;;44.38;12.23;;;;;;;20.64;53.42;93645.25;4940398;29;20047;-87
2022/05/17 04:51:27;;;;;;;61.13;13.75;;;;;;;20.65;53.24;93649.50;4950708;28;20039;-89
2022/05/17 04:53:52;;;;;;;61.90;14.68;;;;;;;20.63;53.24;93654.03;4952470;28;20050;-88
2022/05/17 04:56:19;;;;;;;57.30;15.88;;;;;;;20.62;53.38;93649.78;4918805;28;20047;-91
2022/05/17 04:58:46;;;;;;;88.80;20.83;;;;;;;20.57;53.33;93651.34;4925422;28;20492;-88
2022/05/17 05:01:11;;;;;;;73.63;18.75;;;;;;;20.62;53.26;93638.81;4897204;29;20468;-88
2022/05/17 05:03:37;;;;;;;80.63;19.50;;;;;;;20.63;53.23;93648.53;4896569;29;20123;-91
2022/05/17 05:06:02;;;;;;;96.20;25.23;;;;;;;20.63;53.16;93649.28;4884063;29;20043;-89
2022/05/17 05:08:28;;;;;;;86.97;20.00;;;;;;;20.58;53.68;93641.09;4918518;29;20044;-89
2022/05/17 05:10:53;;;;;;;69.30;19.63;;;;;;;20.59;53.96;93640.59;4908146;29;20476;-88
2022/05/17 05:13:20;;;;;;;93.93;23.95;;;;;;;20.53;54.00;93637.19;4890453;29;20249;-87
2022/05/17 05:15:46;;;;;;;106.30;29.10;;;;;;;20.54;54.24;93652.41;4890255;29;20051;-87
2022/05/17 05:18:11;;;;;;;98.18;29.17;;;;;;;20.56;53.93;93640.91;4890511;29;20652;-86
2022/05/17 05:20:38;;;;;;;250.20;59.88;;;;;;;20.56;54.12;93640.91;4876406;29;20691;-87
2022/05/17 05:23:04;;;;;;;218.60;58.90;;;;;;;20.59;53.91;93639.84;4903772;29;20431;-87
2022/05/17 05:25:30;;;;;;;206.70;62.08;;;;;;;20.60;54.01;93647.56;4907575;29;20052;-90
2022/05/17 05:27:55;;;;;;;210.05;62.45;;;;;;;20.59;54.06;93650.81;4896646;29;20048;-89
2022/05/17 05:30:21;;;;;;;219.75;68.07;;;;;;;20.59;53.97;93653.56;4873463;29;20100;-91
2022/05/17 05:32:47;;;;;;;614.88;276.95;;;;;;;20.59;53.71;93648.06;4898069;29;20599;-89
2022/05/17 05:35:16;;;;;;;207.73;67.72;;;;;;;20.62;53.87;93647.78;4863663;29;20578;-89
2022/05/17 05:37:41;;;;;;;185.70;61.20;;;;;;;20.62;53.77;93652.53;4882584;29;20083;-89
2022/05/17 05:40:07;;;;;;;188.45;66.15;;;;;;;20.64;53.73;93653.50;4905555;29;20119;-86
2022/05/17 05:42:33;;;;;;;194.18;72.75;;;;;;;20.67;53.94;93646.97;4892361;29;20049;-90
2022/05/17 05:44:58;;;;;;;179.10;61.13;;;;;;;20.67;53.92;93657.22;4923731;28;20038;-88
2022/05/17 05:47:24;;;;;;;183.68;67.28;;;;;;;20.64;53.69;93650.75;4951068;28;20055;-89
2022/05/17 05:49:49;;;;;;;204.00;72.03;;;;;;;20.67;53.68;93663.47;4929524;29;20050;-86
2022/05/17 05:52:16;;;;;;;219.55;70.10;;;;;;;20.66;53.69;93655.72;4914894;29;20035;-90
2022/05/17 05:54:41;;;;;;;248.85;84.10;;;;;;;20.61;53.91;93649.03;4911079;29;20031;-89
2022/05/17 05:57:07;;;;;;;259.30;78.70;;;;;;;20.62;54.20;93666.28;4941392;29;20637;-88
2022/05/17 05:59:32;;;;;;;215.13;71.78;;;;;;;20.61;54.03;93664.78;4928114;29;20094;-92
2022/05/17 06:01:58;;;;;;;172.30;60.72;;;;;;;20.59;53.96;93662.56;4915592;29;20090;-91
2022/05/17 06:04:27;;;;;;;138.20;57.55;;;;;;;20.58;54.19;93660.31;4920999;29;20039;-88
2022/05/17 06:06:53;;;;;;;146.88;58.90;;;;;;;20.63;54.25;93668.50;4937207;29;20059;-88
2022/05/17 06:09:19;;;;;;;265.83;162.50;;;;;;;20.59;54.55;93667.31;4919857;29;20071;-89
2022/05/17 06:11:46;;;;;;;155.70;78.53;;;;;;;20.65;54.24;93668.72;4949841;29;20039;-88
2022/05/17 06:14:14;;;;;;;122.72;52.90;;;;;;;20.64;54.69;93670.00;4913493;29;20051;-92
2022/05/17 06:16:41;;;;;;;155.07;66.15;;;;;;;20.61;54.33;93664.78;4918548;29;20055;-94
2022/05/17 06:19:07;;;;;;;113.28;47.38;;;;;;;20.58;54.14;93660.31;4915611;29;20039;-89
2022/05/17 06:21:32;;;;;;;98.13;43.17;;;;;;;20.61;53.94;93662.78;4922600;29;20056;-91
2022/05/17 06:23:58;;;;;;;92.88;42.90;;;;;;;20.58;54.10;93663.06;4920068;29;20036;-90
2022/05/17 06:26:24;;;;;;;125.35;48.25;;;;;;;20.57;54.47;93665.06;4924548;29;20122;-94
2022/05/17 06:28:52;;;;;;;99.45;42.83;;;;;;;20.57;54.30;93659.59;4912213;29;20047;-94
2022/05/17 06:31:17;;;;;;;101.00;43.20;;;;;;;20.53;54.41;93670.88;4916312;29;20043;-89
2022/05/17 06:33:43;;;;;;;76.53;38.80;;;;;;;20.49;54.32;93669.69;4914347;29;20449;-91
2022/05/17 06:36:08;;;;;;;84.00;40.10;;;;;;;20.49;54.75;93664.19;4920201;29;20031;-90
2022/05/17 06:38:34;;;;;;;88.22;39.00;;;;;;;20.51;54.63;93672.66;4929346;29;20046;-89
2022/05/17 06:41:00;;;;;;;83.45;38.28;;;;;;;20.46;54.81;93671.47;4918640;29;20073;-90
2022/05/17 06:43:27;;;;;;;99.22;46.92;;;;;;;20.51;54.48;93670.66;4915910;29;20045;-89
2022/05/17 06:45:53;;;;;;;129.20;66.65;;;;;;;20.52;54.59;93674.91;4914087;29;20588;-90
2022/05/17 06:48:20;;;;;;;137.13;70.38;;;;;;;20.47;54.63;93672.94;4942592;29;20055;-90
2022/05/17 06:50:45;;;;;;;146.43;64.82;;;;;;;20.48;54.65;93663.44;4928355;28;20047;-90
2022/05/17 06:53:11;;;;;;;143.77;58.30;;;;;;;20.50;54.86;93673.91;4933636;29;20047;-88
2022/05/17 06:55:37;;;;;;;119.20;59.03;;;;;;;20.48;54.84;93679.94;4925977;28;20083;-93
2022/05/17 06:58:03;;;;;;;246.68;120.80;;;;;;;20.53;54.73;93684.63;4924140;29;20028;-89
2022/05/17 07:00:28;;;;;;;120.28;51.83;;;;;;;20.44;54.89;93682.22;4932582;28;20056;-90
2022/05/17 07:02:54;;;;;;;109.15;46.75;;;;;;;20.45;54.99;93683.72;4914101;29;20055;-89
2022/05/17 07:05:19;;;;;;;131.38;54.03;;;;;;;20.48;54.86;93685.44;4928999;29;20071;-88
2022/05/17 07:07:45;;;;;;;101.35;43.83;;;;;;;20.47;54.78;93685.94;4917990;29;20079;-89
2022/05/17 07:13:13;;;;;;;110.13;51.47;;;;;;;20.49;54.79;93683.41;4933732;28;20194;-89
2022/05/17 07:15:47;;;;;;;169.07;58.75;;;;;;;20.48;55.06;93685.44;4945084;28;20059;-90
2022/05/17 07:18:15;;;;;;;203.07;64.47;;;;;;;20.47;54.78;93685.94;4920702;29;20065;-88
2022/05/17 07:20:40;;;;;;;158.88;60.78;;;;;;;20.48;54.89;93687.44;4933386;29;20043;-89
2022/05/17 07:23:06;;;;;;;167.43;63.78;;;;;;;20.46;55.08;93687.19;4928119;29;20051;-88
2022/05/17 07:25:32;;;;;;;151.80;61.53;;;;;;;20.47;54.90;93677.69;4918568;28;20043;-90
2022/05/17 07:27:58;;;;;;;145.65;63.80;;;;;;;20.47;54.92;93683.19;4933026;29;20047;-89
2022/05/17 07:30:23;;;;;;;142.70;66.95;;;;;;;20.50;54.73;93685.66;4932863;29;20483;-88
2022/05/17 07:32:49;;;;;;;152.38;69.78;;;;;;;20.47;55.07;93683.94;4936463;28;20074;-89
2022/05/17 07:35:14;;;;;;;143.00;66.93;;;;;;;20.49;54.77;93678.66;4922651;29;20498;-90
2022/05/17 07:37:41;;;;;;;169.77;69.80;;;;;;;20.50;54.83;93690.41;4951588;28;20059;-89
2022/05/17 07:40:08;;;;;;;192.60;69.90;;;;;;;20.44;54.84;93687.72;4947074;28;20043;-91
2022/05/17 07:42:34;;;;;;;151.18;67.25;;;;;;;20.45;55.17;93686.44;4917090;29;20036;-91
2022/05/17 07:45:00;;;;;;;141.98;64.72;;;;;;;20.46;55.17;93690.69;4936395;29;20075;-93
2022/05/17 07:47:29;;;;;;;192.45;73.72;;;;;;;20.47;55.17;93686.69;4927757;29;20047;-93
2022/05/17 07:49:55;;;;;;;223.20;85.10;;;;;;;20.49;54.99;93684.16;4926915;29;20770;-87
2022/05/17 07:52:20;;;;;;;156.38;63.50;;;;;;;20.47;55.28;93688.69;4907057;29;20035;-91
2022/05/17 07:54:46;;;;;;;161.20;63.58;;;;;;;20.48;55.16;93690.91;4883958;29;20048;-89
2022/05/17 07:57:11;;;;;;;145.63;62.35;;;;;;;20.47;55.10;93697.66;4876322;29;20045;-90
2022/05/17 07:59:37;;;;;;;140.68;57.38;;;;;;;20.50;55.06;93693.88;4878470;29;20049;-90
2022/05/17 08:02:02;;;;;;;148.05;57.60;;;;;;;20.43;55.33;93691.72;4874611;29;20045;-89
2022/05/17 08:04:30;;;;;;;145.63;57.70;;;;;;;20.45;55.29;93699.44;4893363;29;20052;-91
2022/05/17 08:06:56;;;;;;;122.60;52.80;;;;;;;20.44;55.36;93692.47;4867388;29;20049;-90
2022/05/17 08:09:23;;;;;;;183.45;67.47;;;;;;;20.44;55.58;93695.94;4856568;29;20145;-88
2022/05/17 08:11:59;;;;;;;208.13;78.18;;;;;;;20.46;55.50;93698.19;4879242;29;20049;-90
2022/05/17 08:14:25;;;;;;;199.93;78.00;;;;;;;20.42;55.69;93692.97;4861356;29;20305;-91
2022/05/17 08:16:50;;;;;;;154.23;67.65;;;;;;;20.43;55.63;93699.22;4886684;29;20621;-91
2022/05/17 08:19:16;;;;;;;166.45;76.13;;;;;;;20.42;55.58;93700.47;4879673;29;20150;-91
2022/05/17 08:21:41;;;;;;;195.82;83.78;;;;;;;20.43;55.66;93704.72;4876671;29;20052;-90
2022/05/17 08:24:08;;;;;;;165.25;82.53;;;;;;;20.42;55.51;93698.47;4878542;29;20473;-90
2022/05/17 08:29:17;;;;;;;149.35;73.18;;;;;;;20.41;55.53;93707.97;4938836;29;20047;-90
2022/05/17 08:33:14;;;;;;;199.82;96.47;;;;;;;20.46;55.81;93701.66;4947037;29;20074;-88
2022/05/17 08:34:28;;;;;;;195.25;94.78;;;;;;;20.45;55.46;93710.44;4934320;29;20098;-94
2022/05/17 08:37:00;;;;;;;166.70;74.25;;;;;;;20.46;55.48;93709.91;4916246;29;20443;-90
2022/05/17 08:39:26;;;;;;;233.63;97.70;;;;;;;20.49;55.52;93713.63;4940344;28;20059;-90
2022/05/17 08:42:00;;;;;;;208.90;95.32;;;;;;;20.47;55.62;93707.91;4904016;29;20044;-89
2022/05/17 08:44:43;;;;;;;196.70;82.38;;;;;;;20.47;55.52;93718.91;4913165;29;20099;-91
2022/05/17 08:47:16;;;;;;;217.48;104.30;;;;;;;20.48;55.52;93723.88;4889401;29;20043;-92
2022/05/17 08:50:04;;;;;;;203.55;96.57;;;;;;;20.48;55.45;93717.63;4906810;29;20047;-92
2022/05/17 08:52:29;;;;;;;201.65;108.25;;;;;;;20.48;55.48;93723.13;4871724;29;20523;-90
2022/05/17 08:55:22;;;;;;;291.85;129.95;;;;;;;20.51;55.42;93725.59;4926093;29;20061;-90
2022/05/17 08:57:51;;;;;;;285.00;136.63;;;;;;;20.48;55.58;93720.38;5001263;23;20049;-91
2022/05/17 09:01:06;;;;;;;249.00;135.55;;;;;;;20.46;55.74;93726.38;5032003;28;20055;-94
2022/05/17 09:03:50;;;;;;;298.65;160.25;;;;;;;20.48;55.70;93721.13;5049864;28;20056;-93
2022/05/17 09:06:24;;;;;;;260.15;141.55;;;;;;;20.44;55.70;93725.41;5037242;28;20711;-89
2022/05/17 09:09:28;;;;;;;302.73;161.25;;;;;;;20.47;55.72;93729.88;5056973;28;20024;-91
2022/05/17 09:12:01;;;;;;;302.42;158.68;;;;;;;20.47;55.59;93725.13;5033326;28;20438;-92
2022/05/17 09:14:33;;;;;;;279.95;150.63;;;;;;;20.44;55.77;93739.16;5067073;28;20064;-92
2022/05/17 09:17:30;;;;;;;249.15;143.02;;;;;;;20.43;55.68;93737.66;5048967;22;20045;-92
2022/05/17 09:19:56;;;;;;;267.02;147.68;;;;;;;20.45;56.01;93740.63;4983710;28;20076;-92
2022/05/17 09:22:22;;;;;;;253.25;138.13;;;;;;;20.40;56.08;93736.69;5001611;28;20049;-89
2022/05/17 09:24:59;;;;;;;263.52;141.45;;;;;;;20.39;56.00;93728.97;4988276;28;20042;-93
2022/05/17 09:27:30;;;;;;;222.57;121.05;;;;;;;20.41;56.10;93740.16;4984806;28;20088;-93
2022/05/17 09:30:23;;;;;;;224.82;129.98;;;;;;;20.42;56.29;93736.16;4999197;28;20404;-90
2022/05/17 09:33:05;;;;;;;246.80;140.70;;;;;;;20.42;56.11;93736.16;5038885;23;20091;-93
2022/05/17 09:35:31;;;;;;;233.27;126.43;;;;;;;20.38;56.19;93741.19;4994184;28;20049;-92
2022/05/17 09:38:01;;;;;;;234.75;124.72;;;;;;;20.41;56.08;93743.66;5002523;28;20058;-88
2022/05/17 09:40:56;;;;;;;267.07;125.83;;;;;;;20.41;56.12;93729.19;4983251;28;20546;-89
2022/05/17 09:43:25;;;;;;;269.02;129.18;;;;;;;20.40;55.94;93735.94;4985782;28;20370;-93
2022/05/17 09:45:58;;;;;;;223.52;117.60;;;;;;;20.39;56.01;93723.47;4997304;28;20038;-91
2022/05/17 09:48:31;;;;;;;224.65;114.22;;;;;;;20.41;56.03;93729.94;4981960;28;20043;-93
2022/05/17 09:53:46;;;;;;;185.30;102.38;;;;;;;20.46;55.80;93731.13;5004664;28;20475;-90
2022/05/17 09:56:11;;;;;;;171.30;98.95;;;;;;;20.45;55.64;93738.63;4992086;28;20543;-93
2022/05/17 09:58:38;;;;;;;173.32;101.50;;;;;;;20.45;55.79;93740.63;4981042;28;20080;-91
2022/05/17 10:01:22;;;;;;;202.85;103.80;;;;;;;20.43;55.90;93738.41;4976201;28;20047;-91
2022/05/17 10:06:15;;;;;;;172.38;95.05;;;;;;;20.47;55.76;93732.63;5038493;22;20046;-92
2022/05/17 10:08:57;;;;;;;161.70;88.13;;;;;;;20.46;55.80;93747.63;4978657;28;20136;-91
2022/05/17 10:11:24;;;;;;;161.65;89.30;;;;;;;20.45;55.88;93746.13;5009159;28;20037;-91
2022/05/17 10:13:51;;;;;;;150.52;85.30;;;;;;;20.49;55.80;93746.59;4990368;28;20048;-92
2022/05/17 10:16:24;;;;;;;145.50;86.20;;;;;;;20.48;55.98;93745.09;5012709;28;20045;-89
2022/05/17 10:19:17;;;;;;;140.15;81.22;;;;;;;20.48;55.93;93754.09;5012482;28;20056;-88
2022/05/17 10:21:53;;;;;;;135.02;79.10;;;;;;;20.46;55.88;93753.84;4996454;28;20132;-89
2022/05/17 10:24:35;;;;;;;140.27;80.07;;;;;;;20.48;55.59;93754.09;4993230;28;20097;-90
2022/05/17 10:27:13;;;;;;;167.88;77.97;;;;;;;20.50;55.85;93745.31;5009052;28;20064;-89
2022/05/17 10:29:51;;;;;;;529.15;363.17;;;;;;;20.50;55.96;93748.81;5000990;28;20045;-90
2022/05/17 10:32:27;;;;;;;339.00;118.45;;;;;;;20.54;55.67;93743.03;4985229;28;20034;-90
2022/05/17 10:35:09;;;;;;;158.18;79.40;;;;;;;20.41;56.40;93746.41;4967320;28;20030;-90
2022/05/17 10:37:54;;;;;;;92.90;55.03;;;;;;;20.44;56.55;93750.13;4995705;28;20092;-88
2022/05/17 10:40:24;;;;;;;90.75;51.58;;;;;;;20.43;56.65;93746.63;5030943;28;20046;-90
2022/05/17 10:42:51;;;;;;;83.87;48.83;;;;;;;20.44;56.60;93741.88;5001413;28;20037;-89
2022/05/17 10:45:35;;;;;;;81.75;45.85;;;;;;;20.40;57.04;93735.94;4973636;28;20705;-89
2022/05/17 10:48:41;;;;;;;77.47;46.10;;;;;;;20.40;56.87;93730.44;4975878;28;20129;-88
2022/05/17 10:51:13;;;;;;;82.22;44.25;;;;;;;20.43;56.89;93745.91;4999919;28;20593;-89
2022/05/17 10:53:54;;;;;;;87.28;44.80;;;;;;;20.42;56.85;93736.91;4989415;28;20721;-90
2022/05/17 10:56:37;;;;;;;93.13;44.97;;;;;;;20.44;56.72;93728.16;5005149;28;20038;-90
2022/05/17 10:59:20;;;;;;;84.90;44.08;;;;;;;20.44;56.82;93733.66;5033513;28;20052;-88
2022/05/17 11:02:25;;;;;;;66.88;39.45;;;;;;;20.46;56.59;93733.88;4992679;28;20492;-90
2022/05/17 11:05:13;;;;;;;96.72;46.80;;;;;;;20.47;56.73;93740.88;4993804;28;20146;-89
2022/05/17 11:08:17;;;;;;;134.40;58.47;;;;;;;20.52;56.36;93734.56;5010880;28;20081;-89
2022/05/17 11:11:17;;;;;;;124.95;45.80;;;;;;;20.60;56.57;93716.22;5033130;28;20069;-92
2022/05/17 11:13:54;;;;;;;97.78;41.88;;;;;;;20.60;56.15;93718.97;5008543;28;20105;-92
2022/05/17 11:16:29;;;;;;;125.95;49.30;;;;;;;20.53;56.39;93727.81;5009688;28;20061;-91
2022/05/17 11:19:40;;;;;;;124.15;49.25;;;;;;;20.55;56.16;93721.81;4989472;28;20372;-87
2022/05/17 11:22:09;;;;;;;;;;;;;;;20.59;56.11;93720.22;4952612;28;20035;-90
2022/05/17 11:24:58;;;;;;;164.32;85.28;;;;;;;20.60;56.12;93721.72;4934412;29;19929;-88
2022/05/17 11:28:02;;;;;;;220.02;107.60;;;;;;;20.57;56.13;93722.03;4931443;29;20047;-92
2022/05/17 11:30:47;;;;;;;183.07;87.80;;;;;;;20.57;56.18;93717.25;4894425;29;20041;-91
2022/05/17 11:33:21;;;;;;;170.30;87.97;;;;;;;20.58;56.14;93715.25;4905717;29;20048;-90
2022/05/17 11:36:27;;;;;;;161.98;86.05;;;;;;;20.61;55.90;93722.47;4914283;29;20084;-92
2022/05/17 11:38:52;;;;;;;219.68;106.47;;;;;;;20.63;56.10;93703.47;4882503;29;20656;-89
2022/05/17 11:41:44;;;;;;;196.38;97.88;;;;;;;20.63;55.88;93706.97;4885526;29;20048;-91
2022/05/17 11:44:27;;;;;;;204.55;104.35;;;;;;;20.66;55.99;93707.94;4899998;29;20048;-89